Time;durP1;ratioP1;P1;durP2;ratioP2;P2;SDS_P1;SDS_P2;PMS_P1;PMS_P2;Temp;Humidity;BMP_temperature;BMP_pressure;BME280_temperature;BME280_humidity;BME280_pressure;Samples;Min_cycle;Max_cycle;Signal;HPM_P1;HPM_P2
2021/04/14 00:00:58;;;;;;;17.92;9.45;;;;;;;31.12;32.53;159356.31;1781509;80;21426;-71
2021/04/14 00:03:32;;;;;;;18.60;8.98;;;;;;;31.05;32.50;159337.63;1781509;80;21340;-71
2021/04/14 00:06:09;;;;;;;14.78;8.95;;;;;;;31.02;32.49;159329.56;1781466;80;21312;-71
2021/04/14 00:08:42;;;;;;;19.07;8.73;;;;;;;31.06;32.37;159340.30;1781339;80;21202;-71
2021/04/14 00:11:17;;;;;;;16.57;8.98;;;;;;;31.05;32.31;159337.63;1781449;80;21371;-71
2021/04/14 00:13:50;;;;;;;13.40;8.68;;;;;;;31.09;32.29;159346.94;1774422;80;21222;-71
2021/04/14 00:16:25;;;;;;;14.50;8.93;;;;;;;29.39;34.14;158893.78;1766214;81;21202;-71
2021/04/14 00:18:59;;;;;;;12.75;8.05;;;;;;;29.26;34.32;158856.44;1766068;80;21190;-72
2021/04/14 00:21:32;;;;;;;23.38;10.80;;;;;;;29.19;34.40;158837.81;1766133;81;21203;-72
2021/04/14 00:24:05;;;;;;;16.42;7.50;;;;;;;29.07;34.47;158805.86;1766297;81;21212;-70
2021/04/14 00:26:37;;;;;;;13.80;7.50;;;;;;;29.00;34.49;158788.56;1745108;81;22023;-70
2021/04/14 00:29:12;;;;;;;10.98;7.80;;;;;;;29.01;34.52;158791.22;1766126;81;21848;-70
2021/04/14 00:31:45;;;;;;;17.62;8.85;;;;;;;28.95;34.64;158775.22;1766179;80;21211;-70
2021/04/14 00:34:20;;;;;;;19.42;9.43;;;;;;;28.86;34.82;158751.28;1766277;81;21542;-71
2021/04/14 00:36:54;;;;;;;17.37;8.93;;;;;;;28.70;35.06;158707.31;1766185;81;21238;-70
2021/04/14 00:39:26;;;;;;;15.50;8.50;;;;;;;28.56;35.83;158670.03;1766230;81;21187;-70
2021/04/14 00:41:59;;;;;;;12.73;8.48;;;;;;;28.37;36.53;158618.12;1766211;81;21456;-70
2021/04/14 00:44:33;;;;;;;11.25;7.10;;;;;;;28.23;36.86;158580.91;1766207;81;21464;-70
2021/04/14 00:47:05;;;;;;;16.25;8.13;;;;;;;28.15;36.88;158560.91;1766208;81;21206;-70
2021/04/14 00:49:37;;;;;;;12.90;7.42;;;;;;;28.07;37.05;158538.27;1766283;81;21347;-70
2021/04/14 00:52:11;;;;;;;16.10;8.50;;;;;;;28.12;36.66;158551.59;1766100;81;21720;-70
2021/04/14 00:54:45;;;;;;;21.70;10.23;;;;;;;28.13;36.48;158554.22;1766079;80;21282;-70
2021/04/14 00:57:17;;;;;;;27.10;13.48;;;;;;;28.18;36.34;158567.53;1766295;81;21231;-70
2021/04/14 00:59:49;;;;;;;25.48;10.65;;;;;;;28.31;36.14;158602.19;1766217;81;21197;-70
2021/04/14 01:02:22;;;;;;;13.30;8.30;;;;;;;28.42;36.00;158631.45;1766115;81;21206;-70
2021/04/14 01:04:54;;;;;;;13.80;6.80;;;;;;;28.56;35.76;158671.39;1766293;81;21503;-70
2021/04/14 01:07:27;;;;;;;15.45;7.78;;;;;;;28.62;35.67;158686.03;1766205;81;21525;-70
2021/04/14 01:10:00;;;;;;;15.40;7.92;;;;;;;28.70;35.50;158708.61;1766014;80;21182;-71
2021/04/14 01:12:34;;;;;;;17.60;8.18;;;;;;;28.80;35.41;158735.28;1766088;81;21230;-72
2021/04/14 01:15:13;;;;;;;12.68;8.10;;;;;;;28.82;35.20;158740.61;1764896;80;21225;-72
2021/04/14 01:21:42;;;;;;;;;;;;;;;28.81;35.02;158736.63;1766351;81;21250;-72
2021/04/14 01:24:17;;;;;;;17.20;7.83;;;;;;;28.87;34.88;158752.62;1763783;81;20215;-71
2021/04/14 01:26:51;;;;;;;16.37;7.62;;;;;;;28.79;34.89;158732.61;1763670;81;21851;-71
2021/04/14 01:29:24;;;;;;;20.72;8.33;;;;;;;28.77;34.86;158725.91;1763672;81;21218;-72
2021/04/14 01:31:58;;;;;;;14.87;8.35;;;;;;;28.71;34.91;158711.28;1763692;81;21249;-71
2021/04/14 01:34:31;;;;;;;16.12;8.05;;;;;;;28.70;34.86;158708.61;1763751;81;21277;-71
2021/04/14 01:37:04;;;;;;;16.10;7.97;;;;;;;28.61;34.91;158683.36;1763747;81;21515;-72
2021/04/14 01:39:37;;;;;;;15.78;7.85;;;;;;;28.75;34.63;158721.94;1763835;81;21344;-72
2021/04/14 01:42:09;;;;;;;16.82;7.78;;;;;;;28.74;34.62;158717.97;1763846;81;21970;-72
2021/04/14 01:44:41;;;;;;;16.52;9.38;;;;;;;28.74;34.54;158719.28;1763719;81;21352;-72
2021/04/14 01:47:13;;;;;;;15.48;7.33;;;;;;;28.79;34.50;158732.61;1763837;81;21190;-72
2021/04/14 01:49:45;;;;;;;11.57;6.97;;;;;;;28.83;34.45;158741.97;1763685;81;22171;-71
2021/04/14 01:52:18;;;;;;;12.40;7.03;;;;;;;28.87;34.28;158752.62;1763730;81;22164;-72
2021/04/14 01:54:51;;;;;;;9.65;6.35;;;;;;;28.92;34.20;158765.91;1763605;81;22050;-72
2021/04/14 01:57:24;;;;;;;11.28;6.35;;;;;;;28.93;34.13;158769.94;1763740;81;21472;-72
2021/04/14 01:59:56;;;;;;;10.55;6.60;;;;;;;29.03;34.04;158795.20;1763650;81;21309;-72
2021/04/14 02:02:29;;;;;;;12.93;6.45;;;;;;;29.13;33.90;158821.81;1763622;81;21265;-72
2021/04/14 02:05:01;;;;;;;15.58;6.03;;;;;;;29.17;33.84;158833.80;1763720;81;21710;-72
2021/04/14 02:07:34;;;;;;;15.32;7.62;;;;;;;29.21;33.78;158844.47;1763730;81;21329;-72
2021/04/14 02:10:09;;;;;;;13.83;6.65;;;;;;;29.23;33.59;158849.80;1763738;81;21194;-71
2021/04/14 02:12:41;;;;;;;13.90;6.55;;;;;;;29.20;33.51;158840.48;1763692;81;21404;-71
2021/04/14 02:15:18;;;;;;;16.10;7.60;;;;;;;29.13;33.40;158823.17;1764787;80;21754;-72
2021/04/14 02:17:51;;;;;;;11.78;6.70;;;;;;;28.99;33.43;158785.89;1781438;80;21540;-71
2021/04/14 02:20:23;;;;;;;12.07;6.15;;;;;;;28.90;33.49;158761.94;1781427;80;21508;-71
2021/04/14 02:22:56;;;;;;;9.40;6.60;;;;;;;28.80;33.44;158735.28;1781440;80;21313;-71
2021/04/14 02:25:28;;;;;;;12.80;6.10;;;;;;;28.71;33.46;158711.28;1781432;80;21343;-71
2021/04/14 02:28:01;;;;;;;13.75;6.50;;;;;;;28.60;33.43;158682.00;1781311;80;21343;-71
2021/04/14 02:30:33;;;;;;;15.18;6.15;;;;;;;28.55;33.43;158667.36;1781431;80;21340;-71
2021/04/14 02:33:06;;;;;;;11.97;6.67;;;;;;;28.49;33.44;158652.72;1781508;80;21196;-71
2021/04/14 02:35:39;;;;;;;13.68;7.53;;;;;;;28.46;33.38;158644.78;1781473;80;21209;-71
2021/04/14 02:38:11;;;;;;;12.25;6.35;;;;;;;28.37;33.38;158619.48;1781426;80;21198;-71
2021/04/14 02:40:44;;;;;;;10.80;6.37;;;;;;;28.27;33.38;158592.88;1781420;80;21352;-72
2021/04/14 02:43:17;;;;;;;9.10;5.70;;;;;;;28.17;33.30;158564.87;1781344;80;21465;-72
2021/04/14 02:45:49;;;;;;;9.45;6.05;;;;;;;28.10;33.34;158546.27;1781522;80;21386;-72
2021/04/14 02:48:21;;;;;;;13.43;5.78;;;;;;;27.88;33.60;158489.05;1781418;80;21332;-72
2021/04/14 02:50:53;;;;;;;12.05;6.33;;;;;;;27.78;33.71;158462.45;1781414;80;21399;-72
2021/04/14 02:53:26;;;;;;;12.98;6.20;;;;;;;27.74;33.80;158450.50;1781421;80;21252;-72
2021/04/14 02:55:58;;;;;;;9.50;6.42;;;;;;;27.80;33.75;158466.42;1781399;80;21209;-73
2021/04/14 02:58:32;;;;;;;12.15;6.33;;;;;;;27.76;33.74;158455.81;1781355;80;21343;-73
2021/04/14 03:01:06;;;;;;;10.82;5.65;;;;;;;27.79;33.75;158463.75;1781536;80;21205;-72
2021/04/14 03:03:40;;;;;;;10.25;5.92;;;;;;;27.85;33.70;158479.75;1781438;80;21363;-75
2021/04/14 03:06:12;;;;;;;10.75;6.05;;;;;;;27.92;33.71;158499.70;1781636;80;21201;-73
2021/04/14 03:08:45;;;;;;;10.55;6.25;;;;;;;27.98;33.70;158515.64;1781526;80;21355;-79
2021/04/14 03:11:18;;;;;;;11.93;6.62;;;;;;;28.07;33.60;158539.58;1781385;80;21241;-75
2021/04/14 03:13:51;;;;;;;11.78;5.85;;;;;;;28.07;33.60;158538.27;1781440;80;21502;-77
2021/04/14 03:16:26;;;;;;;11.95;6.22;;;;;;;28.11;33.52;158548.94;1780561;80;21372;-78
2021/04/14 03:19:01;;;;;;;9.43;6.10;;;;;;;28.13;33.47;158555.56;1764464;80;21444;-78
2021/04/14 03:21:37;;;;;;;9.83;6.25;;;;;;;28.14;33.46;158556.88;1764391;81;21892;-76
2021/04/14 03:24:12;;;;;;;11.83;6.40;;;;;;;28.16;33.45;158563.56;1764334;81;21268;-74
2021/04/14 03:26:46;;;;;;;11.03;6.80;;;;;;;28.12;33.39;158552.91;1766119;81;21706;-76
2021/04/14 03:29:19;;;;;;;15.20;7.45;;;;;;;28.07;33.49;158538.27;1766141;81;21841;-73
2021/04/14 03:31:51;;;;;;;11.15;6.80;;;;;;;28.04;33.50;158531.63;1766091;81;21232;-72
2021/04/14 03:34:24;;;;;;;16.35;6.87;;;;;;;28.09;33.45;158543.59;1766224;81;21285;-73
2021/04/14 03:36:57;;;;;;;12.73;6.65;;;;;;;28.18;33.42;158568.84;1766043;81;21230;-79
2021/04/14 03:39:29;;;;;;;10.90;6.60;;;;;;;28.07;33.49;158539.58;1766202;81;21232;-75
2021/04/14 03:42:03;;;;;;;9.95;6.00;;;;;;;28.09;33.25;158544.91;1766011;81;21355;-73
2021/04/14 03:44:37;;;;;;;12.40;6.97;;;;;;;28.16;33.17;158563.56;1766060;81;21209;-74
2021/04/14 03:47:10;;;;;;;8.43;5.72;;;;;;;28.20;33.08;158574.17;1765977;81;22038;-72
2021/04/14 03:49:42;;;;;;;12.05;5.60;;;;;;;28.31;32.92;158602.19;1766076;81;21260;-73
2021/04/14 03:52:15;;;;;;;10.25;5.67;;;;;;;28.37;32.91;158618.12;1766084;81;21396;-74
2021/04/14 03:54:49;;;;;;;10.38;6.08;;;;;;;28.45;32.92;158642.13;1766268;81;21217;-72
2021/04/14 03:57:40;;;;;;;8.98;5.25;;;;;;;28.50;32.69;158655.39;1766161;81;21198;-73
2021/04/14 04:00:14;;;;;;;10.13;5.87;;;;;;;28.56;32.70;158670.03;1766031;81;21201;-75
2021/04/14 04:02:46;;;;;;;13.15;6.90;;;;;;;28.64;32.55;158691.36;1766166;81;21254;-69
2021/04/14 04:05:18;;;;;;;11.53;6.03;;;;;;;28.67;32.48;158700.66;1766120;81;21261;-70
2021/04/14 04:07:51;;;;;;;8.63;5.70;;;;;;;28.73;32.30;158716.61;1766306;81;21187;-70
2021/04/14 04:10:24;;;;;;;11.18;5.72;;;;;;;28.81;32.24;158738.00;1766238;81;21359;-70
2021/04/14 04:12:57;;;;;;;10.23;6.28;;;;;;;28.87;32.15;158752.62;1766294;81;21186;-70
2021/04/14 04:15:29;;;;;;;9.70;5.40;;;;;;;28.97;31.88;158780.56;1766223;81;21408;-70
2021/04/14 04:18:02;;;;;;;9.65;5.70;;;;;;;28.92;31.81;158767.28;1765776;80;21218;-70
2021/04/14 04:20:35;;;;;;;10.68;5.80;;;;;;;29.00;31.75;158788.56;1763771;81;21337;-70
2021/04/14 04:23:08;;;;;;;10.63;5.65;;;;;;;29.07;31.63;158807.17;1763697;81;21428;-70
2021/04/14 04:25:41;;;;;;;7.60;5.20;;;;;;;29.14;31.51;158824.48;1763790;81;21257;-69
2021/04/14 04:28:15;;;;;;;9.70;5.83;;;;;;;29.25;31.23;158853.77;1761927;81;21419;-69
2021/04/14 04:30:49;;;;;;;20.65;7.97;;;;;;;29.26;31.04;158857.80;1761926;81;21268;-68
2021/04/14 04:33:22;;;;;;;25.85;14.58;;;;;;;29.24;31.05;158851.09;1761915;81;21466;-70
2021/04/14 04:35:55;;;;;;;44.10;21.12;;;;;;;29.25;31.07;158853.77;1761886;81;21222;-70
2021/04/14 04:38:27;;;;;;;58.60;28.40;;;;;;;29.24;31.09;158851.09;1761907;81;21547;-70
2021/04/14 04:40:59;;;;;;;31.37;16.70;;;;;;;29.23;31.05;158848.44;1761902;81;21630;-70
2021/04/14 04:43:33;;;;;;;13.68;7.58;;;;;;;29.24;30.79;158851.09;1761921;81;21360;-70
2021/04/14 04:46:05;;;;;;;10.30;6.30;;;;;;;29.13;30.49;158821.81;1761909;81;21465;-70
2021/04/14 04:48:37;;;;;;;14.25;6.87;;;;;;;29.12;30.33;158819.16;1761902;81;21215;-70
2021/04/14 04:51:10;;;;;;;10.20;6.67;;;;;;;29.03;30.18;158795.20;1761882;81;21202;-70
2021/04/14 04:53:42;;;;;;;9.65;6.67;;;;;;;28.99;30.19;158785.89;1761916;81;21261;-70
2021/04/14 04:56:16;;;;;;;9.93;5.87;;;;;;;28.95;30.27;158775.22;1761919;81;21417;-69
2021/04/14 04:58:49;;;;;;;12.53;7.62;;;;;;;28.94;30.44;158771.25;1741238;81;22062;-71
2021/04/14 05:01:21;;;;;;;10.48;6.70;;;;;;;29.00;30.42;158788.56;1763855;81;21676;-70
2021/04/14 05:03:54;;;;;;;9.55;6.30;;;;;;;29.08;30.44;158809.84;1763843;81;21218;-70
2021/04/14 05:06:27;;;;;;;9.80;5.95;;;;;;;29.19;30.42;158837.81;1763770;81;21206;-70
2021/04/14 05:08:59;;;;;;;11.73;6.08;;;;;;;29.22;30.38;158847.13;1763840;81;22021;-69
2021/04/14 05:11:31;;;;;;;10.38;6.05;;;;;;;29.29;30.14;158865.75;1763717;81;21209;-71
2021/04/14 05:14:04;;;;;;;13.00;7.67;;;;;;;29.34;30.20;158879.09;1761944;81;21333;-70
2021/04/14 05:16:37;;;;;;;10.95;6.83;;;;;;;29.48;30.08;158917.75;1761872;81;21214;-69
2021/04/14 05:19:12;;;;;;;11.43;6.95;;;;;;;29.45;30.03;158908.44;1766844;79;21241;-70
2021/04/14 05:21:46;;;;;;;11.80;6.50;;;;;;;29.39;30.30;158893.78;1802067;79;21197;-69
2021/04/14 05:24:20;;;;;;;10.53;7.15;;;;;;;29.47;30.23;158915.06;1792980;79;21236;-70
2021/04/14 05:26:52;;;;;;;9.53;5.75;;;;;;;29.54;30.20;158933.75;1779085;80;21243;-70
2021/04/14 05:29:24;;;;;;;8.10;5.45;;;;;;;29.65;29.99;158961.69;1779099;80;21193;-70
2021/04/14 05:31:57;;;;;;;11.22;5.85;;;;;;;29.65;29.99;158963.05;1779087;80;21343;-70
2021/04/14 05:34:30;;;;;;;11.00;6.55;;;;;;;29.69;30.16;158973.67;1779161;80;21252;-70
2021/04/14 05:37:02;;;;;;;9.03;5.60;;;;;;;29.79;30.07;158999.00;1779009;80;21220;-70
2021/04/14 05:39:34;;;;;;;11.50;6.37;;;;;;;29.84;30.11;159013.64;1779023;80;21213;-70
2021/04/14 05:42:07;;;;;;;10.53;6.53;;;;;;;29.92;29.97;159034.94;1779074;80;21196;-70
2021/04/14 05:44:40;;;;;;;10.85;6.03;;;;;;;29.96;29.80;159045.66;1779128;80;21208;-69
2021/04/14 05:47:12;;;;;;;10.28;6.47;;;;;;;30.07;29.75;159073.66;1779067;80;22050;-69
2021/04/14 05:49:47;;;;;;;8.35;5.12;;;;;;;30.17;29.61;159100.31;1779070;80;21436;-69
2021/04/14 05:52:20;;;;;;;10.93;6.00;;;;;;;30.26;29.35;159124.28;1779117;80;22105;-70
2021/04/14 05:54:52;;;;;;;10.45;5.53;;;;;;;30.41;29.09;159166.94;1779053;80;21341;-70
2021/04/14 06:00:50;;;;;;;8.40;5.90;;;;;;;30.32;29.02;159140.28;1779065;80;21156;-70
2021/04/14 06:03:23;;;;;;;10.25;5.92;;;;;;;30.29;28.62;159133.59;1779037;80;21192;-68
2021/04/14 06:05:56;;;;;;;11.57;6.30;;;;;;;30.25;28.80;159121.59;1778921;80;21899;-67
2021/04/14 06:08:29;;;;;;;8.65;5.30;;;;;;;30.30;28.62;159134.95;1779037;80;21287;-69
2021/04/14 06:11:04;;;;;;;13.48;6.25;;;;;;;30.32;28.56;159142.91;1778994;80;21200;-67
2021/04/14 06:13:37;;;;;;;11.43;6.62;;;;;;;30.42;28.43;159168.25;1779006;80;21213;-68
2021/04/14 06:16:11;;;;;;;9.75;6.10;;;;;;;30.50;28.39;159190.97;1778997;80;21419;-70
2021/04/14 06:18:43;;;;;;;10.05;5.65;;;;;;;30.69;28.34;159241.59;1778991;80;21220;-70
2021/04/14 06:21:17;;;;;;;12.35;6.97;;;;;;;30.98;27.89;159318.92;1778912;80;21915;-69
2021/04/14 06:23:52;;;;;;;13.13;6.62;;;;;;;31.17;27.72;159369.62;1779003;80;21173;-69
2021/04/14 06:26:31;;;;;;;11.15;6.65;;;;;;;31.26;27.88;159393.61;1779002;80;22033;-68
2021/04/14 06:28:59;;;;;;;8.98;5.47;;;;;;;31.30;27.42;159404.30;1778970;80;21482;-68
2021/04/14 06:31:40;;;;;;;11.85;6.50;;;;;;;31.32;27.38;159409.64;1778809;80;21189;-68
2021/04/14 06:34:19;;;;;;;12.10;6.20;;;;;;;31.46;26.90;159448.30;1778950;80;21173;-68
2021/04/14 06:36:48;;;;;;;11.83;5.83;;;;;;;31.55;26.83;159472.30;1778953;80;21362;-68
2021/04/14 06:39:26;;;;;;;13.15;6.75;;;;;;;31.65;26.36;159499.06;1779117;80;21192;-68
2021/04/14 06:42:52;;;;;;;11.05;5.97;;;;;;;31.62;26.53;159491.06;1779102;80;21200;-68
2021/04/14 06:45:24;;;;;;;15.28;6.92;;;;;;;31.70;26.58;159512.38;1778106;80;21355;-68
2021/04/14 06:48:29;;;;;;;13.85;5.83;;;;;;;31.86;26.09;159553.72;1779131;80;21518;-68
2021/04/14 06:51:12;;;;;;;10.23;6.28;;;;;;;31.99;26.10;159588.41;1781038;80;21245;-70
2021/04/14 06:54:12;;;;;;;11.30;5.87;;;;;;;32.22;26.25;159649.84;1779122;80;21347;-69
2021/04/14 06:56:45;;;;;;;9.48;5.55;;;;;;;32.29;26.37;159671.17;1779265;80;21354;-69
2021/04/14 06:59:23;;;;;;;11.63;6.25;;;;;;;32.38;26.48;159693.88;1779100;80;21432;-69
2021/04/14 07:02:06;;;;;;;12.45;6.00;;;;;;;32.49;26.32;159723.22;1779098;80;21319;-73
2021/04/14 07:04:46;;;;;;;9.23;5.37;;;;;;;32.62;26.31;159757.98;1780894;80;21744;-70
2021/04/14 07:07:26;;;;;;;14.78;5.78;;;;;;;32.62;26.31;159759.34;1780773;80;21247;-71
2021/04/14 07:10:21;;;;;;;8.58;6.03;;;;;;;32.61;26.21;159755.31;1799755;79;21221;-70
2021/04/14 07:12:55;;;;;;;10.55;5.60;;;;;;;32.55;25.67;159740.58;1802178;79;21295;-71
2021/04/14 07:15:28;;;;;;;9.43;6.12;;;;;;;32.23;25.66;159652.50;1780428;79;21344;-71
2021/04/14 07:18:46;;;;;;;10.05;6.62;;;;;;;32.00;25.81;159592.39;1802097;79;21347;-71
2021/04/14 07:21:30;;;;;;;10.00;6.08;;;;;;;31.98;25.89;159585.73;1801980;79;21268;-71
2021/04/14 07:24:25;;;;;;;15.43;7.65;;;;;;;31.95;26.04;159577.72;1802015;79;21193;-74
2021/04/14 07:27:12;;;;;;;10.35;6.40;;;;;;;31.84;25.99;159549.73;1802143;79;21182;-74
2021/04/14 07:29:48;;;;;;;9.80;6.03;;;;;;;31.81;25.99;159541.72;1784985;79;21361;-73
2021/04/14 07:32:41;;;;;;;11.43;6.78;;;;;;;31.72;26.25;159517.72;1770665;79;21253;-72
2021/04/14 07:35:39;;;;;;;10.58;6.25;;;;;;;31.69;26.21;159508.39;1768741;81;21375;-73
2021/04/14 07:38:34;;;;;;;9.23;6.30;;;;;;;31.54;26.40;159469.63;1768786;81;21209;-73
2021/04/14 07:41:40;;;;;;;13.08;6.70;;;;;;;31.56;26.47;159475.02;1768724;81;21348;-71
2021/04/14 07:44:30;;;;;;;9.60;6.85;;;;;;;31.64;26.55;159495.03;1768767;81;21210;-73
2021/04/14 07:47:03;;;;;;;12.28;7.75;;;;;;;31.86;26.45;159555.08;1768749;81;21221;-71
2021/04/14 07:49:36;;;;;;;11.03;7.35;;;;;;;32.04;26.24;159603.09;1768765;81;21344;-72
2021/04/14 07:52:16;;;;;;;9.95;6.62;;;;;;;32.05;26.18;159604.44;1768627;81;21206;-69
2021/04/14 07:54:51;;;;;;;12.63;6.97;;;;;;;32.06;26.18;159608.44;1749300;81;21340;-72
2021/04/14 07:57:35;;;;;;;12.55;6.70;;;;;;;32.01;26.18;159593.75;1768897;81;22027;-72
2021/04/14 08:00:18;;;;;;;11.70;6.80;;;;;;;31.98;26.07;159587.09;1767117;81;22078;-69
2021/04/14 08:02:51;;;;;;;12.78;7.50;;;;;;;31.98;26.24;159587.09;1767074;81;21237;-69
2021/04/14 08:05:34;;;;;;;11.40;7.20;;;;;;;31.97;26.32;159583.06;1767157;81;21206;-69
2021/04/14 08:08:20;;;;;;;12.18;8.15;;;;;;;32.13;26.26;159625.83;1767043;81;21194;-69
2021/04/14 08:11:14;;;;;;;13.83;8.00;;;;;;;32.17;25.99;159636.53;1765426;81;21210;-70
2021/04/14 08:13:47;;;;;;;9.65;6.97;;;;;;;32.18;26.15;159640.50;1767021;80;21199;-70
2021/04/14 08:16:34;;;;;;;11.80;7.67;;;;;;;32.03;26.27;159599.09;1767167;81;21202;-70
2021/04/14 08:19:21;;;;;;;13.03;7.45;;;;;;;31.94;26.55;159576.41;1767024;80;22061;-69
2021/04/14 08:21:58;;;;;;;13.88;8.00;;;;;;;32.16;26.84;159633.84;1767030;81;22114;-69
2021/04/14 08:24:54;;;;;;;10.95;8.13;;;;;;;32.48;26.58;159720.55;1766858;81;21214;-70
2021/04/14 08:27:39;;;;;;;10.78;7.30;;;;;;;32.78;26.27;159800.72;1767071;81;21265;-69
2021/04/14 08:30:15;;;;;;;11.18;7.42;;;;;;;32.96;25.97;159850.13;1775280;79;21197;-71
2021/04/14 08:32:56;;;;;;;12.93;7.62;;;;;;;32.92;25.85;159839.42;1777136;80;22030;-70
2021/04/14 08:35:40;;;;;;;12.80;7.28;;;;;;;32.82;25.99;159811.36;1776448;80;21237;-71
2021/04/14 08:38:19;;;;;;;10.72;7.17;;;;;;;32.75;26.17;159792.69;1776747;79;21220;-71
2021/04/14 08:40:55;;;;;;;15.08;8.25;;;;;;;32.97;26.46;159852.80;1771769;80;21410;-70
2021/04/14 08:43:43;;;;;;;13.75;7.08;;;;;;;33.37;25.80;159959.62;1779494;79;21340;-71
2021/04/14 08:46:32;;;;;;;10.78;7.03;;;;;;;33.56;25.71;160010.41;1800270;79;21201;-71
2021/04/14 08:49:16;;;;;;;13.20;7.40;;;;;;;33.91;25.44;160103.97;1800321;79;21201;-70
2021/04/14 08:51:51;;;;;;;14.65;9.30;;;;;;;34.29;25.03;160206.89;1782254;79;21190;-71
2021/04/14 08:54:34;;;;;;;34.25;17.20;;;;;;;34.50;24.70;160264.31;1754032;80;21517;-70
2021/04/14 08:57:07;;;;;;;19.75;9.75;;;;;;;34.77;24.68;160335.25;1777137;80;21260;-71
2021/04/14 08:59:41;;;;;;;15.03;7.87;;;;;;;35.03;24.60;160406.09;1777115;80;21190;-71
2021/04/14 09:02:17;;;;;;;22.55;9.45;;;;;;;35.13;24.56;160432.88;1777031;80;21201;-71
2021/04/14 09:04:51;;;;;;;16.12;7.92;;;;;;;35.21;24.39;160455.63;1777151;80;21420;-71
2021/04/14 09:07:34;;;;;;;20.20;11.45;;;;;;;35.10;24.63;160424.84;1777076;80;21202;-71
2021/04/14 09:10:10;;;;;;;16.40;8.18;;;;;;;35.14;24.48;160435.56;1777133;80;21527;-68
2021/04/14 09:12:50;;;;;;;14.38;8.35;;;;;;;35.22;24.46;160456.94;1777083;80;21257;-68
2021/04/14 09:15:23;;;;;;;51.20;28.62;;;;;;;35.09;24.78;160422.17;1777097;80;21210;-68
2021/04/14 09:18:04;;;;;;;23.73;12.10;;;;;;;35.09;24.46;160420.86;1776832;80;21269;-68
2021/04/14 09:20:38;;;;;;;18.02;11.05;;;;;;;35.02;24.50;160403.42;1776782;80;21178;-71
2021/04/14 09:23:14;;;;;;;61.85;30.52;;;;;;;35.06;24.18;160412.81;1776647;80;21240;-71
2021/04/14 09:25:51;;;;;;;16.42;9.05;;;;;;;35.23;24.59;160460.98;1756478;81;21206;-71
2021/04/14 09:28:30;;;;;;;14.43;8.65;;;;;;;35.66;24.04;160574.66;1756520;81;21519;-71
2021/04/14 09:31:16;;;;;;;17.00;7.40;;;;;;;36.15;23.82;160708.50;1756394;81;21425;-71
2021/04/14 09:33:52;;;;;;;33.60;14.83;;;;;;;36.72;23.26;160861.12;1756473;81;21258;-70
2021/04/14 09:36:35;;;;;;;16.70;8.10;;;;;;;37.57;23.34;161088.84;1756430;81;21234;-70
2021/04/14 09:39:13;;;;;;;11.12;7.40;;;;;;;39.33;21.85;161564.75;1756429;81;21559;-70
2021/04/14 09:41:47;;;;;;;10.20;6.55;;;;;;;41.13;21.16;162049.25;1754942;81;22141;-70
2021/04/14 09:44:44;;;;;;;13.80;8.53;;;;;;;42.67;20.10;162465.78;1756506;81;21289;-70
2021/04/14 09:47:30;;;;;;;18.75;9.48;;;;;;;43.94;19.08;162808.69;1756404;81;21250;-70
2021/04/14 09:50:31;;;;;;;11.78;6.35;;;;;;;45.07;18.62;163114.17;1755090;81;21257;-71
2021/04/14 09:53:17;;;;;;;9.95;6.40;;;;;;;46.13;17.75;163402.34;1756251;81;21195;-71
2021/04/14 09:55:54;;;;;;;8.40;5.60;;;;;;;47.04;17.46;163648.91;1734560;81;22099;-70
2021/04/14 09:58:40;;;;;;;19.27;9.98;;;;;;;48.06;17.06;163923.89;1756252;81;21249;-71
2021/04/14 10:01:27;;;;;;;16.93;9.13;;;;;;;48.23;16.58;163971.11;1752195;81;21191;-70
2021/04/14 10:04:01;;;;;;;18.75;8.98;;;;;;;47.78;16.67;163847.03;1756283;81;21226;-70
2021/04/14 10:06:34;;;;;;;9.25;6.33;;;;;;;47.65;16.32;163812.00;1756826;81;21202;-70
2021/04/14 10:09:10;;;;;;;13.28;7.53;;;;;;;47.75;16.59;163838.94;1756540;81;21199;-71
2021/04/14 10:11:42;;;;;;;10.32;5.95;;;;;;;47.29;16.38;163714.94;1756366;81;21226;-71
2021/04/14 10:14:22;;;;;;;8.73;5.58;;;;;;;46.98;16.63;163632.72;1756356;81;21488;-71
2021/04/14 10:16:57;;;;;;;8.40;5.22;;;;;;;47.51;16.54;163775.58;1756515;81;21249;-71
2021/04/14 10:19:33;;;;;;;16.85;7.80;;;;;;;48.41;15.96;164019.61;1756293;81;21254;-70
2021/04/14 10:22:13;;;;;;;16.37;7.30;;;;;;;48.51;15.65;164046.56;1758737;81;21297;-70
2021/04/14 10:24:47;;;;;;;7.65;4.37;;;;;;;48.25;15.64;163975.14;1763619;80;21233;-71
2021/04/14 10:27:21;;;;;;;11.30;4.60;;;;;;;48.18;15.38;163956.23;1778885;80;21285;-70
2021/04/14 10:29:53;;;;;;;6.97;4.50;;;;;;;47.93;15.51;163890.17;1778981;80;22157;-70
2021/04/14 10:32:27;;;;;;;10.20;5.45;;;;;;;47.69;15.64;163822.78;1778895;80;21244;-70
2021/04/14 10:35:14;;;;;;;13.40;5.85;;;;;;;48.02;15.89;163914.47;1778875;80;21268;-71
2021/04/14 10:37:53;;;;;;;7.87;4.62;;;;;;;49.35;15.17;164273.25;1773793;80;21213;-70
2021/04/14 10:40:39;;;;;;;5.50;4.10;;;;;;;50.25;14.60;164517.58;1779135;80;21351;-70
2021/04/14 10:43:20;;;;;;;4.00;3.50;;;;;;;50.23;14.45;164513.55;1778883;80;21205;-70
2021/04/14 10:46:14;;;;;;;8.88;5.30;;;;;;;49.57;14.41;164332.59;1778912;80;21279;-70
2021/04/14 10:48:50;;;;;;;9.80;5.87;;;;;;;48.07;14.91;163926.59;1778995;80;21206;-70
2021/04/14 10:51:42;;;;;;;7.60;3.98;;;;;;;48.12;15.49;163941.42;1778890;80;21206;-70
2021/04/14 10:54:17;;;;;;;21.45;9.73;;;;;;;48.95;14.93;164165.34;1772475;80;21217;-70
2021/04/14 10:57:05;;;;;;;19.48;9.73;;;;;;;49.02;14.76;164184.20;1778864;80;21698;-71
2021/04/14 10:59:37;;;;;;;21.80;8.20;;;;;;;49.13;14.86;164213.88;1747405;80;21236;-71
2021/04/14 11:02:13;;;;;;;13.80;6.80;;;;;;;50.23;14.52;164513.55;1777096;80;21198;-71
2021/04/14 11:04:45;;;;;;;20.32;8.28;;;;;;;50.92;14.09;164699.87;1753480;80;21221;-71
2021/04/14 11:07:23;;;;;;;10.60;5.35;;;;;;;51.19;14.26;164774.09;1777163;80;21198;-71
2021/04/14 11:09:58;;;;;;;30.82;16.45;;;;;;;52.02;13.94;164998.38;1777072;80;21431;-71
2021/04/14 11:12:31;;;;;;;24.27;10.75;;;;;;;52.27;13.62;165065.92;1751075;80;21210;-70
2021/04/14 11:15:14;;;;;;;16.80;8.45;;;;;;;52.58;13.54;165151.08;1779058;80;21189;-71
2021/04/14 11:17:54;;;;;;;49.93;21.02;;;;;;;52.48;13.50;165124.02;1778928;80;21215;-71
2021/04/14 11:20:54;;;;;;;10.80;5.87;;;;;;;52.91;13.27;165240.28;1757411;80;21210;-71
2021/04/14 11:23:31;;;;;;;9.65;4.50;;;;;;;53.18;13.08;165314.69;1778924;80;21206;-71
2021/04/14 11:26:19;;;;;;;17.65;8.85;;;;;;;51.61;13.27;164886.25;1748148;81;21241;-68
2021/04/14 11:28:54;;;;;;;8.53;4.60;;;;;;;50.02;13.89;164455.47;1759009;81;21206;-68
2021/04/14 11:31:39;;;;;;;23.55;10.95;;;;;;;49.69;14.09;164366.39;1759231;81;21453;-69
2021/04/14 11:34:19;;;;;;;8.95;4.65;;;;;;;50.32;14.06;164537.81;1759211;81;21278;-70
2021/04/14 11:37:03;;;;;;;13.60;7.15;;;;;;;49.73;13.96;164377.14;1759383;81;21293;-70
2021/04/14 11:40:09;;;;;;;23.20;10.85;;;;;;;49.61;14.18;164343.45;1759227;81;22015;-70
2021/04/14 11:43:02;;;;;;;21.27;10.65;;;;;;;49.23;14.46;164240.83;1759274;81;21436;-74
2021/04/14 11:45:40;;;;;;;19.35;8.30;;;;;;;49.68;14.31;164362.31;1761083;81;21421;-74
2021/04/14 11:48:15;;;;;;;12.35;7.37;;;;;;;49.91;13.97;164427.11;1759132;81;21431;-73
2021/04/14 11:50:48;;;;;;;8.10;5.10;;;;;;;50.36;13.97;164547.25;1760891;81;21364;-73
2021/04/14 11:53:28;;;;;;;13.95;7.10;;;;;;;50.14;13.87;164489.16;1760970;81;21210;-73
2021/04/14 11:56:00;;;;;;;7.00;4.80;;;;;;;48.76;14.11;164112.70;1761101;81;21346;-72
2021/04/14 11:58:48;;;;;;;5.95;3.92;;;;;;;46.82;14.81;163586.95;1761093;81;21452;-71
2021/04/14 12:01:24;;;;;;;14.47;5.85;;;;;;;45.93;15.52;163348.47;1760976;81;21527;-73
2021/04/14 12:03:57;;;;;;;7.15;4.35;;;;;;;45.60;15.67;163258.22;1760888;81;21407;-77
2021/04/14 12:06:29;;;;;;;5.55;3.85;;;;;;;46.00;15.60;163367.28;1744392;81;21269;-75
2021/04/14 12:09:02;;;;;;;8.88;5.35;;;;;;;46.36;15.38;163464.28;1760990;81;21345;-75
2021/04/14 12:11:37;;;;;;;11.45;6.40;;;;;;;46.80;15.19;163584.19;1761092;81;21363;-82